createdAt,value
2018-12-26T00:01:08.180Z,97.60
2018-12-26T00:03:36.670Z,97.50
2018-12-26T00:06:05.114Z,97.50
2018-12-26T00:08:33.581Z,97.50
2018-12-26T00:11:02.056Z,97.50
2018-12-26T00:13:30.515Z,97.60
2018-12-26T00:15:58.972Z,97.70
2018-12-26T00:18:27.580Z,97.80
2018-12-26T00:20:56.270Z,97.90
2018-12-26T00:23:24.749Z,97.90
2018-12-26T00:26:01.425Z,98.00
2018-12-26T00:28:23.458Z,98.10
2018-12-26T00:30:51.933Z,98.20
2018-12-26T00:33:20.396Z,98.20
2018-12-26T00:35:48.881Z,98.30
2018-12-26T00:38:17.344Z,98.30
2018-12-26T00:40:46.163Z,98.40
2018-12-26T00:43:14.931Z,98.40
2018-12-26T00:45:43.391Z,98.40
2018-12-26T00:48:11.842Z,98.40
2018-12-26T00:50:40.348Z,98.50
2018-12-26T00:53:08.800Z,98.40
2018-12-26T00:55:37.639Z,98.40
2018-12-26T00:58:06.100Z,98.40
2018-12-26T01:00:34.557Z,98.40
2018-12-26T01:03:03.363Z,98.40
2018-12-26T01:05:31.900Z,98.30
2018-12-26T01:08:00.382Z,98.30
2018-12-26T01:10:28.841Z,98.30
2018-12-26T01:12:57.295Z,98.30
2018-12-26T01:15:25.775Z,98.30
2018-12-26T01:17:54.271Z,98.20
2018-12-26T01:20:22.739Z,98.10
2018-12-26T01:22:51.180Z,98.10
2018-12-26T01:25:19.635Z,98.10
2018-12-26T01:27:48.066Z,98.30
2018-12-26T01:30:16.855Z,98.30
2018-12-26T01:32:45.342Z,98.40
2018-12-26T01:35:13.991Z,98.40
2018-12-26T01:37:42.445Z,98.40
2018-12-26T01:40:10.907Z,98.40
2018-12-26T01:42:39.384Z,98.50
2018-12-26T01:45:07.875Z,98.50
2018-12-26T01:47:36.323Z,98.60
2018-12-26T01:50:07.427Z,98.60
2018-12-26T01:52:35.983Z,98.40
2018-12-26T01:55:05.425Z,98.40
2018-12-26T01:57:33.891Z,98.40
2018-12-26T02:00:02.535Z,98.40
2018-12-26T02:02:30.990Z,98.40
2018-12-26T02:04:59.775Z,98.40
2018-12-26T02:07:28.255Z,98.30
2018-12-26T02:09:56.717Z,98.20
2018-12-26T02:12:25.187Z,98.10
2018-12-26T02:14:53.654Z,98.10
2018-12-26T02:17:22.114Z,97.90
2018-12-26T02:19:50.759Z,97.90
2018-12-26T02:22:19.227Z,97.80
2018-12-26T02:24:47.692Z,97.90
2018-12-26T02:27:16.159Z,98.00
2018-12-26T02:29:44.623Z,98.10
2018-12-26T02:32:13.088Z,98.20
2018-12-26T02:34:41.920Z,98.00
2018-12-26T02:37:10.363Z,98.20
2018-12-26T02:39:38.831Z,98.20
2018-12-26T02:42:07.297Z,98.20
2018-12-26T02:44:35.747Z,98.10
2018-12-26T02:47:04.543Z,97.90
2018-12-26T02:49:32.991Z,97.90
2018-12-26T02:52:01.439Z,97.90
2018-12-26T02:54:30.279Z,98.00
2018-12-26T02:56:58.759Z,98.00
2018-12-26T02:59:27.435Z,98.00
2018-12-26T03:01:55.924Z,98.00
2018-12-26T03:04:24.646Z,98.00
2018-12-26T03:06:53.104Z,97.90
2018-12-26T03:09:21.571Z,97.80
2018-12-26T03:11:50.017Z,97.80
2018-12-26T03:14:18.474Z,97.80
2018-12-26T03:16:47.217Z,97.70
2018-12-26T03:19:15.701Z,97.60
2018-12-26T03:21:44.149Z,97.60
2018-12-26T03:24:12.602Z,97.60
2018-12-26T03:26:41.429Z,97.60
2018-12-26T03:29:09.866Z,97.60
2018-12-26T03:31:38.324Z,97.60
2018-12-26T03:34:06.801Z,97.70
2018-12-26T03:36:35.973Z,97.70
2018-12-26T03:39:06.194Z,97.60
2018-12-26T03:41:35.521Z,97.60
2018-12-26T03:44:05.015Z,97.80
2018-12-26T03:46:35.028Z,97.80
2018-12-26T03:49:03.508Z,97.90
2018-12-26T03:51:31.968Z,98.00
2018-12-26T03:54:00.411Z,98.00
2018-12-26T03:56:28.899Z,98.00
2018-12-26T03:58:57.494Z,98.00
2018-12-26T04:01:26.121Z,98.00
2018-12-26T04:03:54.570Z,98.10
2018-12-26T04:06:23.069Z,98.10
2018-12-26T04:08:51.563Z,98.10
2018-12-26T04:11:20.662Z,98.20
2018-12-26T04:13:49.126Z,98.20
2018-12-26T04:16:17.603Z,98.20
2018-12-26T04:18:46.682Z,98.20
2018-12-26T04:21:15.144Z,98.20
2018-12-26T04:23:43.975Z,98.20
2018-12-26T04:26:12.513Z,98.20
2018-12-26T04:28:40.950Z,98.30
2018-12-26T04:31:09.408Z,98.30
2018-12-26T04:33:37.952Z,98.30
2018-12-26T04:36:06.404Z,98.40
2018-12-26T04:38:35.213Z,98.40
2018-12-26T04:41:03.661Z,98.40
2018-12-26T04:43:32.134Z,98.50
2018-12-26T04:46:00.866Z,98.50
2018-12-26T04:48:29.463Z,98.50
2018-12-26T04:50:57.911Z,98.50
2018-12-26T04:53:26.362Z,98.60
2018-12-26T04:55:55.203Z,98.60
2018-12-26T04:58:23.679Z,98.50
2018-12-26T05:00:52.145Z,98.50
2018-12-26T05:03:20.938Z,98.50
2018-12-26T05:05:49.736Z,98.50
2018-12-26T05:08:18.202Z,98.60
2018-12-26T05:10:47.001Z,98.60
2018-12-26T05:13:15.487Z,98.50
2018-12-26T05:15:44.303Z,98.50
2018-12-26T05:18:12.851Z,98.50
2018-12-26T05:20:41.311Z,98.50
2018-12-26T05:23:09.799Z,98.50
2018-12-26T05:25:38.239Z,98.60
2018-12-26T05:28:06.694Z,98.60
2018-12-26T05:30:35.152Z,98.70
2018-12-26T05:33:03.914Z,98.70
2018-12-26T05:35:32.374Z,98.60
2018-12-26T05:38:00.846Z,98.60
2018-12-26T05:40:29.306Z,98.70
2018-12-26T05:42:57.767Z,98.70
2018-12-26T05:45:26.245Z,98.70
2018-12-26T05:47:55.014Z,98.80
2018-12-26T05:50:23.479Z,98.80
2018-12-26T05:52:52.010Z,98.80
2018-12-26T05:55:20.758Z,98.90
2018-12-26T05:57:49.538Z,98.90
2018-12-26T06:00:17.997Z,98.90
2018-12-26T06:02:46.812Z,98.80
2018-12-26T06:05:15.266Z,98.80
2018-12-26T06:07:43.969Z,98.80
2018-12-26T06:10:12.408Z,98.80
2018-12-26T06:12:40.879Z,98.80
2018-12-26T06:15:09.347Z,98.70
2018-12-26T06:17:37.794Z,98.60
2018-12-26T06:20:06.664Z,98.70
2018-12-26T06:22:35.144Z,98.70
2018-12-26T06:25:03.609Z,98.60
2018-12-26T06:27:32.099Z,98.70
2018-12-26T06:30:00.530Z,98.80
2018-12-26T06:32:28.994Z,98.80
2018-12-26T06:34:57.474Z,98.80
2018-12-26T06:37:25.945Z,98.90
2018-12-26T06:39:54.735Z,98.90
2018-12-26T06:42:23.194Z,98.90
2018-12-26T06:44:51.691Z,98.80
2018-12-26T06:47:20.188Z,98.80
2018-12-26T06:49:48.957Z,98.80
2018-12-26T06:52:17.413Z,98.80
2018-12-26T06:54:45.899Z,98.80
2018-12-26T06:57:14.698Z,98.80
2018-12-26T06:59:43.369Z,98.80
2018-12-26T07:02:11.910Z,98.80
2018-12-26T07:04:40.367Z,98.80
2018-12-26T07:07:08.845Z,98.80
2018-12-26T07:09:37.314Z,98.80
2018-12-26T07:12:05.785Z,98.80
2018-12-26T07:14:34.552Z,98.80
2018-12-26T07:17:03.049Z,98.80
2018-12-26T07:19:32.139Z,98.90
2018-12-26T07:22:00.597Z,98.70
2018-12-26T07:24:29.504Z,98.70
2018-12-26T07:26:57.973Z,98.70
2018-12-26T07:29:26.442Z,98.80
2018-12-26T07:31:54.882Z,98.80
2018-12-26T07:34:23.636Z,98.80
2018-12-26T07:36:52.066Z,98.80
2018-12-26T07:39:20.895Z,98.60
2018-12-26T07:41:49.679Z,98.60
2018-12-26T07:44:18.159Z,98.40
2018-12-26T07:46:46.594Z,98.30
2018-12-26T07:49:15.046Z,98.50
2018-12-26T07:51:43.535Z,98.50
2018-12-26T07:54:12.014Z,98.40
2018-12-26T07:56:40.465Z,98.00
2018-12-26T07:59:09.376Z,97.80
2018-12-26T08:01:38.071Z,98.10
2018-12-26T08:04:06.822Z,98.40
2018-12-26T08:06:35.614Z,98.60
2018-12-26T08:09:06.034Z,98.70
2018-12-26T08:11:34.485Z,98.90
2018-12-26T08:14:03.189Z,99.00
2018-12-26T08:16:31.982Z,99.00
2018-12-26T08:19:00.756Z,98.90
2018-12-26T08:21:29.662Z,98.90
2018-12-26T08:23:58.434Z,98.90
2018-12-26T08:26:26.875Z,98.80
2018-12-26T08:28:58.629Z,98.80
2018-12-26T08:31:27.465Z,98.70
2018-12-26T08:33:55.940Z,98.60
2018-12-26T08:36:24.413Z,98.40
2018-12-26T08:38:52.886Z,98.20
2018-12-26T08:41:21.334Z,98.00
2018-12-26T08:43:49.794Z,98.00
2018-12-26T08:46:43.508Z,98.00
2018-12-26T08:49:12.316Z,98.00
2018-12-26T08:51:40.774Z,97.90
2018-12-26T08:54:09.576Z,97.80
2018-12-26T08:56:38.031Z,97.60
2018-12-26T08:59:06.497Z,97.70
2018-12-26T09:01:34.959Z,97.60
2018-12-26T09:04:03.435Z,97.60
2018-12-26T09:06:31.910Z,97.50
2018-12-26T09:09:00.394Z,97.40
2018-12-26T09:11:28.930Z,97.30
2018-12-26T09:14:08.930Z,97.30
2018-12-26T09:16:37.671Z,97.30
2018-12-26T09:19:06.137Z,97.10
2018-12-26T09:21:34.678Z,97.30
2018-12-26T09:24:03.256Z,97.10
2018-12-26T09:26:32.633Z,97.10
2018-12-26T09:29:01.106Z,97.10
2018-12-26T09:31:29.553Z,97.00
2018-12-26T09:33:58.019Z,96.80
2018-12-26T09:36:26.742Z,96.60
2018-12-26T09:38:55.546Z,96.60
2018-12-26T09:41:24.029Z,96.30
2018-12-26T09:43:52.781Z,96.10
2018-12-26T09:46:21.203Z,95.90
2018-12-26T09:48:49.672Z,95.70
2018-12-26T09:51:18.121Z,95.50
2018-12-26T09:53:46.926Z,95.50
2018-12-26T09:56:15.413Z,95.50
2018-12-26T09:58:52.278Z,95.50
2018-12-26T10:01:14.442Z,95.30
2018-12-26T10:03:42.970Z,95.30
2018-12-26T10:06:11.405Z,95.60
2018-12-26T10:08:40.156Z,95.80
2018-12-26T10:11:09.583Z,95.80
2018-12-26T10:13:38.046Z,95.30
2018-12-26T10:16:06.834Z,95.10
2018-12-26T10:18:35.690Z,95.10
2018-12-26T10:21:04.126Z,95.00
2018-12-26T10:23:32.978Z,94.90
2018-12-26T10:26:02.490Z,94.70
2018-12-26T10:28:30.952Z,94.50
2018-12-26T10:30:59.412Z,94.20
2018-12-26T10:33:27.937Z,94.10
2018-12-26T10:35:56.707Z,94.00
2018-12-26T10:38:25.191Z,93.90
2018-12-26T10:40:53.653Z,93.80
2018-12-26T10:43:22.442Z,93.50
2018-12-26T10:45:50.903Z,93.80
2018-12-26T10:48:19.614Z,93.80
2018-12-26T10:50:48.387Z,94.10
2018-12-26T10:53:16.845Z,94.60
2018-12-26T10:55:45.279Z,94.80
2018-12-26T10:58:13.749Z,95.00
2018-12-26T11:00:42.516Z,94.70
2018-12-26T11:03:10.945Z,94.50
2018-12-26T11:05:39.414Z,94.20
2018-12-26T11:08:08.029Z,94.30
2018-12-26T11:10:36.493Z,94.30
2018-12-26T11:13:05.222Z,94.20
2018-12-26T11:15:34.118Z,93.80
2018-12-26T11:18:02.592Z,93.60
2018-12-26T11:20:33.202Z,93.30
2018-12-26T11:23:02.759Z,93.10
2018-12-26T11:25:31.289Z,92.70
2018-12-26T11:28:00.260Z,92.40
2018-12-26T11:30:32.030Z,92.40
2018-12-26T11:33:02.150Z,92.50
2018-12-26T11:35:31.089Z,92.40
2018-12-26T11:38:02.378Z,93.00
2018-12-26T11:40:31.523Z,93.00
2018-12-26T11:43:00.054Z,93.00
2018-12-26T11:45:30.320Z,93.10
2018-12-26T11:48:00.388Z,92.60
2018-12-26T11:50:28.886Z,92.30
2018-12-26T11:52:57.689Z,90.10
2018-12-26T11:55:26.471Z,90.70
2018-12-26T11:57:55.264Z,91.80
2018-12-26T12:00:24.037Z,92.10
2018-12-26T12:02:53.509Z,91.00
2018-12-26T12:05:22.440Z,91.40
2018-12-26T12:07:51.226Z,91.70
2018-12-26T12:10:19.970Z,92.30
2018-12-26T12:12:48.698Z,92.50
2018-12-26T12:15:17.173Z,92.30
2018-12-26T12:17:46.078Z,92.60
2018-12-26T12:20:14.566Z,93.00
2018-12-26T12:22:43.016Z,93.20
2018-12-26T12:25:11.493Z,93.50
2018-12-26T12:27:39.941Z,93.80
2018-12-26T12:30:08.778Z,93.50
2018-12-26T12:32:37.667Z,93.70
2018-12-26T12:35:07.282Z,93.40
2018-12-26T12:37:35.714Z,93.40
2018-12-26T12:40:06.798Z,93.40
2018-12-26T12:42:35.578Z,93.60
2018-12-26T12:45:04.927Z,93.40
2018-12-26T12:47:33.378Z,93.50
2018-12-26T12:50:01.866Z,93.90
2018-12-26T12:52:30.322Z,93.90
2018-12-26T12:54:58.791Z,93.90
2018-12-26T12:57:27.240Z,93.80
2018-12-26T12:59:56.063Z,93.90
2018-12-26T13:02:24.507Z,94.00
2018-12-26T13:04:53.054Z,94.00
2018-12-26T13:07:21.521Z,93.50
2018-12-26T13:09:50.003Z,92.40
2018-12-26T13:12:18.474Z,92.30
2018-12-26T13:14:47.255Z,92.70
2018-12-26T13:17:16.027Z,93.20
2018-12-26T13:19:44.493Z,93.60
2018-12-26T13:22:12.946Z,92.80
2018-12-26T13:24:41.410Z,93.00
2018-12-26T13:27:09.886Z,93.50
2018-12-26T13:29:38.417Z,93.80
2018-12-26T13:32:07.220Z,94.10
2018-12-26T13:34:35.718Z,94.00
2018-12-26T13:37:04.169Z,94.00
2018-12-26T13:39:32.657Z,93.40
2018-12-26T13:42:01.119Z,93.40
2018-12-26T13:44:29.583Z,93.70
2018-12-26T13:46:58.078Z,94.30
2018-12-26T13:49:26.501Z,94.50
2018-12-26T13:51:55.353Z,94.70
2018-12-26T13:54:25.088Z,95.10
2018-12-26T13:56:53.546Z,95.20
2018-12-26T13:59:22.346Z,95.30
2018-12-26T14:01:50.822Z,95.10
2018-12-26T14:04:24.639Z,95.20
2018-12-26T14:06:53.120Z,95.30
2018-12-26T14:09:21.585Z,95.10
2018-12-26T14:11:50.062Z,95.30
2018-12-26T14:14:18.869Z,95.50
2018-12-26T14:16:47.712Z,95.50
2018-12-26T14:19:18.011Z,95.40
2018-12-26T14:21:49.152Z,95.40
2018-12-26T14:24:17.490Z,95.50
2018-12-26T14:26:46.686Z,95.50
2018-12-26T14:29:15.856Z,95.50
2018-12-26T14:31:44.656Z,95.70
2018-12-26T14:34:13.187Z,95.80
2018-12-26T14:36:41.801Z,95.80
2018-12-26T14:39:10.251Z,95.80
2018-12-26T14:41:38.707Z,95.80
2018-12-26T14:44:07.183Z,95.70
2018-12-26T14:46:35.650Z,95.70
2018-12-26T14:49:06.819Z,95.80
2018-12-26T14:51:43.601Z,95.90
2018-12-26T14:54:12.103Z,95.90
2018-12-26T14:56:40.558Z,95.90
2018-12-26T14:59:09.014Z,95.90
2018-12-26T15:01:37.501Z,96.00
2018-12-26T15:04:06.393Z,96.20
2018-12-26T15:06:35.172Z,96.30
2018-12-26T15:09:05.495Z,96.40
2018-12-26T15:11:33.965Z,96.50
2018-12-26T15:14:02.772Z,96.70
2018-12-26T15:16:31.302Z,96.70
2018-12-26T15:19:17.515Z,96.80
2018-12-26T15:22:01.163Z,96.80
2018-12-26T15:24:29.607Z,96.60
2018-12-26T15:26:58.062Z,96.60
2018-12-26T15:29:26.902Z,96.70
2018-12-26T15:31:55.449Z,96.70
2018-12-26T15:34:26.874Z,96.40
2018-12-26T15:36:55.342Z,96.40
2018-12-26T15:39:24.188Z,96.40
2018-12-26T15:41:52.775Z,96.50
2018-12-26T15:44:21.267Z,96.60
2018-12-26T15:46:49.906Z,96.60
2018-12-26T15:49:18.631Z,96.70
2018-12-26T15:51:47.418Z,96.70
2018-12-26T15:54:15.869Z,96.70
2018-12-26T15:56:48.320Z,96.60
2018-12-26T15:59:16.782Z,96.70
2018-12-26T16:01:45.233Z,96.50
2018-12-26T16:04:13.714Z,96.40
2018-12-26T16:06:42.498Z,96.40
2018-12-26T16:09:11.272Z,96.50
2018-12-26T16:11:39.741Z,96.50
2018-12-26T16:14:08.651Z,96.50
2018-12-26T16:16:37.421Z,96.70
2018-12-26T16:19:06.045Z,96.80
2018-12-26T16:21:34.890Z,96.90
2018-12-26T16:24:03.329Z,97.10
2018-12-26T16:26:31.786Z,97.20
2018-12-26T16:29:00.237Z,97.30
2018-12-26T16:31:28.711Z,97.40
2018-12-26T16:33:57.508Z,97.50
2018-12-26T16:36:25.962Z,97.50
2018-12-26T16:38:54.486Z,97.50
2018-12-26T16:41:22.992Z,97.50
2018-12-26T16:43:51.448Z,97.50
2018-12-26T16:46:20.230Z,97.50
2018-12-26T16:48:48.707Z,97.50
2018-12-26T16:51:17.184Z,97.50
2018-12-26T16:53:45.610Z,97.60
2018-12-26T16:56:14.429Z,97.60
2018-12-26T16:58:43.898Z,97.60
2018-12-26T17:01:12.370Z,97.60
2018-12-26T17:03:41.211Z,97.70
2018-12-26T17:06:09.662Z,97.70
2018-12-26T17:08:38.120Z,97.70
2018-12-26T17:11:06.598Z,97.80
2018-12-26T17:13:35.030Z,97.70
2018-12-26T17:16:03.473Z,98.10
2018-12-26T17:18:32.281Z,98.20
2018-12-26T17:21:01.164Z,98.10
2018-12-26T17:23:29.624Z,98.00
2018-12-26T17:25:58.075Z,98.10
2018-12-26T17:28:26.813Z,98.20
2018-12-26T17:31:03.920Z,98.30
2018-12-26T17:33:26.028Z,98.40
2018-12-26T17:36:01.424Z,98.30
2018-12-26T17:38:29.901Z,98.10
2018-12-26T17:40:58.359Z,98.10
2018-12-26T17:43:26.842Z,98.10
2018-12-26T17:45:55.587Z,98.00
2018-12-26T17:48:24.065Z,98.00
2018-12-26T17:50:52.515Z,97.90
2018-12-26T17:53:26.752Z,97.80
2018-12-26T17:55:58.627Z,97.70
2018-12-26T17:58:42.593Z,97.70
2018-12-26T18:01:19.670Z,97.60
2018-12-26T18:03:48.267Z,97.50
2018-12-26T18:06:16.748Z,97.50
2018-12-26T18:08:45.417Z,97.50
2018-12-26T18:11:14.175Z,97.60
2018-12-26T18:13:42.986Z,97.60
2018-12-26T18:16:11.450Z,97.70
2018-12-26T18:18:39.921Z,97.70
2018-12-26T18:21:08.366Z,97.80
2018-12-26T18:23:36.930Z,97.80
2018-12-26T18:26:05.789Z,97.70
2018-12-26T18:28:34.335Z,97.60
2018-12-26T18:31:03.166Z,97.50
2018-12-26T18:33:31.629Z,97.50
2018-12-26T18:36:07.680Z,97.70
2018-12-26T18:38:36.214Z,97.80
2018-12-26T18:41:04.661Z,98.00
2018-12-26T18:43:33.123Z,98.10
2018-12-26T18:46:01.581Z,98.30
2018-12-26T18:48:30.030Z,98.40
2018-12-26T18:50:58.470Z,98.40
2018-12-26T18:53:26.921Z,98.40
2018-12-26T18:55:55.367Z,98.40
2018-12-26T18:58:23.842Z,98.30
2018-12-26T19:00:52.291Z,98.30
2018-12-26T19:03:20.767Z,98.30
2018-12-26T19:05:49.213Z,98.40
2018-12-26T19:08:17.685Z,98.50
2018-12-26T19:10:46.500Z,98.50
2018-12-26T19:13:15.282Z,98.60
2018-12-26T19:15:44.098Z,98.60
2018-12-26T19:18:12.856Z,98.60
2018-12-26T19:20:41.325Z,98.60
2018-12-26T19:23:10.129Z,98.60
2018-12-26T19:25:38.927Z,98.50
2018-12-26T19:28:07.385Z,98.40
2018-12-26T19:30:36.191Z,98.40
2018-12-26T19:33:04.645Z,98.40
2018-12-26T19:35:33.089Z,98.40
2018-12-26T19:38:01.568Z,98.30
2018-12-26T19:40:30.026Z,98.20
2018-12-26T19:42:58.491Z,98.30
2018-12-26T19:45:27.266Z,98.30
2018-12-26T19:47:56.266Z,98.20
2018-12-26T19:50:24.754Z,98.20
2018-12-26T19:52:53.218Z,98.20
2018-12-26T19:55:21.752Z,98.20
2018-12-26T19:57:50.194Z,98.20
2018-12-26T20:00:18.653Z,98.20
2018-12-26T20:02:47.104Z,98.30
2018-12-26T20:05:15.918Z,98.20
2018-12-26T20:07:44.434Z,98.20
2018-12-26T20:10:12.923Z,98.20
2018-12-26T20:12:41.699Z,98.20
2018-12-26T20:15:10.491Z,98.20
2018-12-26T20:17:40.627Z,98.30
2018-12-26T20:20:11.011Z,98.30
2018-12-26T20:22:39.520Z,98.30
2018-12-26T20:25:11.173Z,98.30
2018-12-26T20:27:39.618Z,98.30
2018-12-26T20:30:08.923Z,98.30
2018-12-26T20:32:37.388Z,98.30
2018-12-26T20:35:06.278Z,98.20
2018-12-26T20:37:34.754Z,98.40
2018-12-26T20:40:03.954Z,98.40
2018-12-26T20:42:32.607Z,98.50
2018-12-26T20:45:01.072Z,98.60
2018-12-26T20:47:29.534Z,98.60
2018-12-26T20:49:58.279Z,98.60
2018-12-26T20:52:26.750Z,98.60
2018-12-26T20:54:55.231Z,98.70
2018-12-26T20:57:24.042Z,98.60
2018-12-26T20:59:52.492Z,98.60
2018-12-26T21:02:20.966Z,98.60
2018-12-26T21:04:49.419Z,98.60
2018-12-26T21:07:17.898Z,98.60
2018-12-26T21:09:46.371Z,98.50
2018-12-26T21:12:14.836Z,98.50
2018-12-26T21:14:45.261Z,98.30
2018-12-26T21:17:14.368Z,98.20
2018-12-26T21:19:43.006Z,98.30
2018-12-26T21:22:11.478Z,98.30
2018-12-26T21:24:39.965Z,98.30
2018-12-26T21:27:08.515Z,98.40
2018-12-26T21:29:37.293Z,98.30
2018-12-26T21:32:13.983Z,98.40
2018-12-26T21:34:36.868Z,98.40
2018-12-26T21:37:05.668Z,98.60
2018-12-26T21:39:34.161Z,98.60
2018-12-26T21:42:02.803Z,98.60
2018-12-26T21:44:31.264Z,98.70
2018-12-26T21:46:59.792Z,98.70
2018-12-26T21:49:28.286Z,98.80
2018-12-26T21:51:56.767Z,98.80
2018-12-26T21:54:25.247Z,98.90
2018-12-26T21:56:53.754Z,98.80
2018-12-26T21:59:22.207Z,98.80
2018-12-26T22:01:50.671Z,98.60
2018-12-26T22:04:19.117Z,98.60
2018-12-26T22:06:49.620Z,98.60
2018-12-26T22:09:18.073Z,98.60
2018-12-26T22:11:46.557Z,98.60
2018-12-26T22:14:15.273Z,98.60
2018-12-26T22:16:47.336Z,98.70
2018-12-26T22:19:16.486Z,98.60
2018-12-26T22:21:45.020Z,98.60
2018-12-26T22:24:13.537Z,98.60
2018-12-26T22:26:43.390Z,98.70
2018-12-26T22:29:12.630Z,98.80
2018-12-26T22:31:41.107Z,98.90
2018-12-26T22:34:09.926Z,99.00
2018-12-26T22:36:38.496Z,99.00
2018-12-26T22:39:07.003Z,99.00
2018-12-26T22:41:35.451Z,99.00
2018-12-26T22:44:04.217Z,99.00
2018-12-26T22:46:32.662Z,98.90
2018-12-26T22:49:01.494Z,98.80
2018-12-26T22:51:29.953Z,98.80
2018-12-26T22:53:58.409Z,98.70
2018-12-26T22:56:26.871Z,98.70
2018-12-26T22:58:55.333Z,98.70
2018-12-26T23:01:23.926Z,98.70
2018-12-26T23:03:52.401Z,98.70
2018-12-26T23:06:20.873Z,98.70
2018-12-26T23:08:49.362Z,98.70
2018-12-26T23:11:17.821Z,98.70
2018-12-26T23:13:46.304Z,98.70
2018-12-26T23:16:15.094Z,98.60
2018-12-26T23:18:43.579Z,98.60
2018-12-26T23:21:12.434Z,98.50
2018-12-26T23:23:40.913Z,98.50
2018-12-26T23:26:09.391Z,98.40
2018-12-26T23:28:37.833Z,98.40
2018-12-26T23:31:06.563Z,98.40
2018-12-26T23:33:35.019Z,98.20
2018-12-26T23:36:03.483Z,98.20
2018-12-26T23:38:31.937Z,98.10
2018-12-26T23:41:00.405Z,98.10
2018-12-26T23:43:29.179Z,98.00
2018-12-26T23:45:57.966Z,98.00
2018-12-26T23:48:26.460Z,98.00
2018-12-26T23:50:54.910Z,98.10
2018-12-26T23:53:23.702Z,98.00
2018-12-26T23:55:52.142Z,98.00
2018-12-26T23:58:20.594Z,98.00
